sensor_id;sensor_type;location;lat;lon;timestamp;pressure;altitude;pressure_sealevel;temperature;humidity
62072;BME280;48031;48.542;13.232;2023-04-28T00:02:43;97383.19;;;15.77;38.98
62072;BME280;48031;48.542;13.232;2023-04-28T00:06:47;97376.91;;;15.33;39.52
62072;BME280;48031;48.542;13.232;2023-04-28T00:10:49;97376.63;;;15.34;39.60
62072;BME280;48031;48.542;13.232;2023-04-28T00:14:51;97377.59;;;15.15;40.46
62072;BME280;48031;48.542;13.232;2023-04-28T00:18:52;97358.50;;;14.99;40.70
62072;BME280;48031;48.542;13.232;2023-04-28T00:22:54;97358.44;;;15.15;39.77
62072;BME280;48031;48.542;13.232;2023-04-28T00:26:56;97360.56;;;15.23;39.43
62072;BME280;48031;48.542;13.232;2023-04-28T00:30:58;97352.09;;;15.24;38.96
62072;BME280;48031;48.542;13.232;2023-04-28T00:34:59;97347.41;;;15.30;39.28
62072;BME280;48031;48.542;13.232;2023-04-28T00:39:01;97351.72;;;15.41;38.84
62072;BME280;48031;48.542;13.232;2023-04-28T00:43:04;97358.03;;;15.36;39.96
62072;BME280;48031;48.542;13.232;2023-04-28T00:47:07;97351.66;;;15.46;39.67
62072;BME280;48031;48.542;13.232;2023-04-28T00:51:09;97354.53;;;15.31;38.79
62072;BME280;48031;48.542;13.232;2023-04-28T00:55:14;97350.94;;;15.35;39.33
62072;BME280;48031;48.542;13.232;2023-04-28T00:59:15;97343.00;;;15.34;39.61
62072;BME280;48031;48.542;13.232;2023-04-28T01:03:17;97351.88;;;15.11;40.34
62072;BME280;48031;48.542;13.232;2023-04-28T01:07:19;97344.09;;;14.84;41.55
62072;BME280;48031;48.542;13.232;2023-04-28T01:11:22;97338.88;;;14.92;41.42
62072;BME280;48031;48.542;13.232;2023-04-28T01:15:44;97335.25;;;15.07;40.28
62072;BME280;48031;48.542;13.232;2023-04-28T01:19:45;97337.78;;;14.98;41.03
62072;BME280;48031;48.542;13.232;2023-04-28T01:23:47;97334.28;;;15.32;40.07
62072;BME280;48031;48.542;13.232;2023-04-28T01:27:49;97330.63;;;15.47;40.53
62072;BME280;48031;48.542;13.232;2023-04-28T01:31:51;97332.44;;;15.61;40.32
62072;BME280;48031;48.542;13.232;2023-04-28T01:35:56;97332.78;;;15.84;40.33
62072;BME280;48031;48.542;13.232;2023-04-28T01:39:58;97335.63;;;15.34;41.04
62072;BME280;48031;48.542;13.232;2023-04-28T01:44:00;97343.84;;;15.29;41.01
62072;BME280;48031;48.542;13.232;2023-04-28T01:48:02;97352.91;;;15.25;40.59
62072;BME280;48031;48.542;13.232;2023-04-28T01:52:04;97333.53;;;15.16;40.53
62072;BME280;48031;48.542;13.232;2023-04-28T01:56:06;97327.53;;;15.19;40.01
62072;BME280;48031;48.542;13.232;2023-04-28T02:00:09;97326.03;;;14.88;41.59
62072;BME280;48031;48.542;13.232;2023-04-28T02:04:22;97315.13;;;14.13;43.05
62072;BME280;48031;48.542;13.232;2023-04-28T02:08:24;97316.53;;;14.80;41.33
62072;BME280;48031;48.542;13.232;2023-04-28T02:12:26;97318.69;;;14.83;41.30
62072;BME280;48031;48.542;13.232;2023-04-28T02:16:28;97324.78;;;14.70;41.52
62072;BME280;48031;48.542;13.232;2023-04-28T02:20:29;97328.44;;;14.99;41.58
62072;BME280;48031;48.542;13.232;2023-04-28T02:24:35;97315.31;;;15.02;41.47
62072;BME280;48031;48.542;13.232;2023-04-28T02:28:37;97329.56;;;14.93;40.95
62072;BME280;48031;48.542;13.232;2023-04-28T02:32:39;97324.44;;;14.87;41.15
62072;BME280;48031;48.542;13.232;2023-04-28T02:36:41;97311.03;;;14.01;43.41
62072;BME280;48031;48.542;13.232;2023-04-28T02:40:43;97320.63;;;13.78;44.07
62072;BME280;48031;48.542;13.232;2023-04-28T02:44:44;97317.06;;;14.03;43.13
62072;BME280;48031;48.542;13.232;2023-04-28T02:48:47;97307.88;;;14.63;42.23
62072;BME280;48031;48.542;13.232;2023-04-28T02:52:49;97303.94;;;14.84;41.43
62072;BME280;48031;48.542;13.232;2023-04-28T02:56:51;97308.31;;;14.85;41.54
62072;BME280;48031;48.542;13.232;2023-04-28T03:00:52;97310.31;;;14.70;42.02
62072;BME280;48031;48.542;13.232;2023-04-28T03:04:54;97305.09;;;13.63;44.22
62072;BME280;48031;48.542;13.232;2023-04-28T03:08:57;97285.28;;;14.47;43.43
62072;BME280;48031;48.542;13.232;2023-04-28T03:12:58;97279.09;;;14.81;42.05
62072;BME280;48031;48.542;13.232;2023-04-28T03:17:00;97285.75;;;14.65;42.96
62072;BME280;48031;48.542;13.232;2023-04-28T03:21:02;97297.88;;;14.28;42.91
62072;BME280;48031;48.542;13.232;2023-04-28T03:25:04;97294.84;;;14.45;43.70
62072;BME280;48031;48.542;13.232;2023-04-28T03:29:11;97289.94;;;14.27;43.94
62072;BME280;48031;48.542;13.232;2023-04-28T03:33:13;97299.63;;;13.38;46.01
62072;BME280;48031;48.542;13.232;2023-04-28T03:37:15;97305.25;;;12.76;47.23
62072;BME280;48031;48.542;13.232;2023-04-28T03:41:18;97313.16;;;12.87;47.64
62072;BME280;48031;48.542;13.232;2023-04-28T03:45:39;97297.38;;;12.79;48.29
62072;BME280;48031;48.542;13.232;2023-04-28T03:49:42;97294.41;;;12.19;49.34
62072;BME280;48031;48.542;13.232;2023-04-28T03:53:44;97292.91;;;12.48;47.89
62072;BME280;48031;48.542;13.232;2023-04-28T03:57:46;97292.91;;;12.48;48.34
62072;BME280;48031;48.542;13.232;2023-04-28T04:01:49;97273.19;;;13.74;45.34
62072;BME280;48031;48.542;13.232;2023-04-28T04:05:51;97275.19;;;14.33;43.55
62072;BME280;48031;48.542;13.232;2023-04-28T04:09:55;97267.44;;;14.65;42.92
62072;BME280;48031;48.542;13.232;2023-04-28T04:13:57;97263.13;;;14.54;43.71
62072;BME280;48031;48.542;13.232;2023-04-28T04:18:00;97259.53;;;15.08;42.71
62072;BME280;48031;48.542;13.232;2023-04-28T04:22:12;97256.66;;;14.84;43.20
62072;BME280;48031;48.542;13.232;2023-04-28T04:26:15;97270.84;;;14.91;43.35
62072;BME280;48031;48.542;13.232;2023-04-28T04:30:17;97261.50;;;14.97;44.05
62072;BME280;48031;48.542;13.232;2023-04-28T04:34:19;97265.53;;;15.05;42.97
62072;BME280;48031;48.542;13.232;2023-04-28T04:38:21;97260.72;;;14.91;43.54
62072;BME280;48031;48.542;13.232;2023-04-28T04:42:23;97265.53;;;15.05;43.65
62072;BME280;48031;48.542;13.232;2023-04-28T04:46:49;97268.66;;;15.27;42.87
62072;BME280;48031;48.542;13.232;2023-04-28T04:50:54;97257.81;;;15.17;43.59
62072;BME280;48031;48.542;13.232;2023-04-28T04:54:56;97261.34;;;15.56;42.19
62072;BME280;48031;48.542;13.232;2023-04-28T04:58:59;97259.22;;;15.48;42.45
62072;BME280;48031;48.542;13.232;2023-04-28T05:03:13;97272.88;;;15.53;42.34
62072;BME280;48031;48.542;13.232;2023-04-28T05:07:15;97263.03;;;15.52;42.88
62072;BME280;48031;48.542;13.232;2023-04-28T05:11:17;97259.72;;;15.50;42.99
62072;BME280;48031;48.542;13.232;2023-04-28T05:15:19;97260.09;;;15.72;43.01
62072;BME280;48031;48.542;13.232;2023-04-28T05:19:41;97253.34;;;15.65;42.63
62072;BME280;48031;48.542;13.232;2023-04-28T05:23:43;97246.34;;;15.54;43.55
62072;BME280;48031;48.542;13.232;2023-04-28T05:27:45;97246.25;;;15.64;43.49
62072;BME280;48031;48.542;13.232;2023-04-28T05:31:47;97250.13;;;15.87;43.30
62072;BME280;48031;48.542;13.232;2023-04-28T05:35:49;97250.88;;;15.92;43.11
62072;BME280;48031;48.542;13.232;2023-04-28T05:39:51;97247.28;;;15.97;43.01
62072;BME280;48031;48.542;13.232;2023-04-28T05:43:53;97237.47;;;15.91;43.49
62072;BME280;48031;48.542;13.232;2023-04-28T05:47:55;97234.03;;;15.80;43.87
62072;BME280;48031;48.542;13.232;2023-04-28T05:51:57;97242.78;;;16.06;43.32
62072;BME280;48031;48.542;13.232;2023-04-28T05:55:58;97241.91;;;15.87;43.60
62072;BME280;48031;48.542;13.232;2023-04-28T06:00:00;97228.78;;;15.84;44.70
62072;BME280;48031;48.542;13.232;2023-04-28T06:04:13;97227.84;;;16.17;43.47
62072;BME280;48031;48.542;13.232;2023-04-28T06:08:15;97227.91;;;16.36;42.70
62072;BME280;48031;48.542;13.232;2023-04-28T06:12:17;97233.56;;;15.73;44.03
62072;BME280;48031;48.542;13.232;2023-04-28T06:16:20;97232.03;;;16.33;43.26
62072;BME280;48031;48.542;13.232;2023-04-28T06:20:24;97232.53;;;16.16;43.21
62072;BME280;48031;48.542;13.232;2023-04-28T06:24:25;97233.19;;;16.51;42.96
62072;BME280;48031;48.542;13.232;2023-04-28T06:28:29;97236.81;;;16.46;42.81
62072;BME280;48031;48.542;13.232;2023-04-28T06:32:31;97237.22;;;16.16;44.27
62072;BME280;48031;48.542;13.232;2023-04-28T06:36:33;97215.47;;;16.67;42.72
62072;BME280;48031;48.542;13.232;2023-04-28T06:40:35;97212.84;;;16.57;42.45
62072;BME280;48031;48.542;13.232;2023-04-28T06:44:39;97224.22;;;16.88;43.35
62072;BME280;48031;48.542;13.232;2023-04-28T06:48:40;97212.13;;;16.89;42.43
62072;BME280;48031;48.542;13.232;2023-04-28T06:52:42;97203.59;;;17.09;42.02
62072;BME280;48031;48.542;13.232;2023-04-28T06:56:44;97215.97;;;17.07;41.87
62072;BME280;48031;48.542;13.232;2023-04-28T07:00:46;97219.75;;;16.73;41.93
62072;BME280;48031;48.542;13.232;2023-04-28T07:04:47;97230.91;;;16.82;41.72
62072;BME280;48031;48.542;13.232;2023-04-28T07:08:50;97226.03;;;17.11;40.68
62072;BME280;48031;48.542;13.232;2023-04-28T07:12:52;97211.94;;;17.18;40.83
62072;BME280;48031;48.542;13.232;2023-04-28T07:16:54;97215.91;;;16.93;41.18
62072;BME280;48031;48.542;13.232;2023-04-28T07:20:56;97214.78;;;17.13;40.80
62072;BME280;48031;48.542;13.232;2023-04-28T07:24:57;97207.75;;;17.39;40.51
62072;BME280;48031;48.542;13.232;2023-04-28T07:28:59;97215.41;;;17.42;40.19
62072;BME280;48031;48.542;13.232;2023-04-28T07:33:01;97211.78;;;17.28;40.59
62072;BME280;48031;48.542;13.232;2023-04-28T07:37:03;97205.72;;;17.31;40.49
62072;BME280;48031;48.542;13.232;2023-04-28T07:41:05;97203.22;;;17.48;39.72
62072;BME280;48031;48.542;13.232;2023-04-28T07:45:11;97215.38;;;17.61;40.69
62072;BME280;48031;48.542;13.232;2023-04-28T07:49:13;97203.34;;;17.24;40.79
62072;BME280;48031;48.542;13.232;2023-04-28T07:53:15;97193.03;;;17.95;39.25
62072;BME280;48031;48.542;13.232;2023-04-28T07:57:17;97197.22;;;18.19;39.44
62072;BME280;48031;48.542;13.232;2023-04-28T08:01:18;97197.63;;;18.13;39.41
62072;BME280;48031;48.542;13.232;2023-04-28T08:05:20;97195.78;;;18.49;38.99
62072;BME280;48031;48.542;13.232;2023-04-28T08:09:22;97194.78;;;17.77;39.86
62072;BME280;48031;48.542;13.232;2023-04-28T08:13:24;97198.03;;;17.93;39.54
62072;BME280;48031;48.542;13.232;2023-04-28T08:17:26;97189.78;;;18.34;38.80
62072;BME280;48031;48.542;13.232;2023-04-28T08:21:28;97188.47;;;18.17;38.96
62072;BME280;48031;48.542;13.232;2023-04-28T08:25:29;97184.09;;;18.44;38.71
62072;BME280;48031;48.542;13.232;2023-04-28T08:29:32;97191.19;;;18.45;38.62
62072;BME280;48031;48.542;13.232;2023-04-28T08:33:34;97197.91;;;18.52;38.29
62072;BME280;48031;48.542;13.232;2023-04-28T08:37:35;97211.22;;;18.73;39.15
62072;BME280;48031;48.542;13.232;2023-04-28T08:41:37;97205.78;;;18.32;38.94
62072;BME280;48031;48.542;13.232;2023-04-28T08:45:43;97207.34;;;18.74;39.00
62072;BME280;48031;48.542;13.232;2023-04-28T08:49:46;97215.13;;;18.58;39.08
62072;BME280;48031;48.542;13.232;2023-04-28T08:53:52;97213.19;;;19.52;38.79
62072;BME280;48031;48.542;13.232;2023-04-28T08:57:57;97212.22;;;19.48;39.47
62072;BME280;48031;48.542;13.232;2023-04-28T09:01:59;97215.31;;;19.33;38.82
62072;BME280;48031;48.542;13.232;2023-04-28T09:06:01;97222.81;;;19.41;39.08
62072;BME280;48031;48.542;13.232;2023-04-28T09:10:15;97219.31;;;20.03;38.58
62072;BME280;48031;48.542;13.232;2023-04-28T09:14:18;97213.38;;;19.56;39.48
62072;BME280;48031;48.542;13.232;2023-04-28T09:18:20;97206.88;;;19.52;38.96
62072;BME280;48031;48.542;13.232;2023-04-28T09:22:27;97216.25;;;20.04;39.58
62072;BME280;48031;48.542;13.232;2023-04-28T09:26:47;97211.06;;;20.42;38.84
62072;BME280;48031;48.542;13.232;2023-04-28T09:30:49;97212.75;;;19.59;40.32
62072;BME280;48031;48.542;13.232;2023-04-28T09:34:53;97209.84;;;19.86;40.42
62072;BME280;48031;48.542;13.232;2023-04-28T09:38:58;97212.13;;;19.93;39.17
62072;BME280;48031;48.542;13.232;2023-04-28T09:43:00;97216.63;;;19.58;40.14
62072;BME280;48031;48.542;13.232;2023-04-28T09:47:19;97206.66;;;20.02;40.85
62072;BME280;48031;48.542;13.232;2023-04-28T09:51:25;97198.38;;;20.02;40.07
62072;BME280;48031;48.542;13.232;2023-04-28T09:55:27;97181.34;;;19.38;41.70
62072;BME280;48031;48.542;13.232;2023-04-28T09:59:29;97184.63;;;20.02;40.02
62072;BME280;48031;48.542;13.232;2023-04-28T10:03:30;97188.63;;;19.96;40.08
62072;BME280;48031;48.542;13.232;2023-04-28T10:07:33;97173.13;;;20.00;39.80
62072;BME280;48031;48.542;13.232;2023-04-28T10:11:36;97169.00;;;20.28;40.13
62072;BME280;48031;48.542;13.232;2023-04-28T10:15:39;97167.03;;;20.20;40.76
62072;BME280;48031;48.542;13.232;2023-04-28T10:19:46;97164.75;;;20.22;41.34
62072;BME280;48031;48.542;13.232;2023-04-28T10:24:04;97159.88;;;20.67;42.17
62072;BME280;48031;48.542;13.232;2023-04-28T10:28:08;97162.63;;;20.10;41.65
62072;BME280;48031;48.542;13.232;2023-04-28T10:32:22;97145.03;;;20.46;41.60
62072;BME280;48031;48.542;13.232;2023-04-28T10:36:50;97144.91;;;20.68;42.38
62072;BME280;48031;48.542;13.232;2023-04-28T10:40:53;97151.66;;;20.27;43.25
62072;BME280;48031;48.542;13.232;2023-04-28T10:44:55;97144.50;;;19.78;44.58
62072;BME280;48031;48.542;13.232;2023-04-28T10:48:57;97139.53;;;19.58;45.25
62072;BME280;48031;48.542;13.232;2023-04-28T10:52:59;97144.50;;;19.78;45.74
62072;BME280;48031;48.542;13.232;2023-04-28T10:57:14;97150.94;;;19.65;45.55
62072;BME280;48031;48.542;13.232;2023-04-28T11:01:30;97162.16;;;20.17;44.30
62072;BME280;48031;48.542;13.232;2023-04-28T11:05:33;97164.31;;;19.36;46.19
62072;BME280;48031;48.542;13.232;2023-04-28T11:13:40;97164.50;;;19.17;48.29
62072;BME280;48031;48.542;13.232;2023-04-28T11:17:43;97149.19;;;19.25;48.73
62072;BME280;48031;48.542;13.232;2023-04-28T11:21:46;97159.22;;;19.21;49.54
62072;BME280;48031;48.542;13.232;2023-04-28T11:25:55;97148.16;;;19.65;48.71
62072;BME280;48031;48.542;13.232;2023-04-28T11:29:58;97143.19;;;19.23;49.73
62072;BME280;48031;48.542;13.232;2023-04-28T11:34:09;97148.59;;;19.28;50.50
62072;BME280;48031;48.542;13.232;2023-04-28T11:38:17;97147.13;;;19.08;50.30
62072;BME280;48031;48.542;13.232;2023-04-28T11:42:18;97152.59;;;18.99;50.81
62072;BME280;48031;48.542;13.232;2023-04-28T11:46:23;97136.69;;;19.19;51.40
62072;BME280;48031;48.542;13.232;2023-04-28T11:50:35;97138.50;;;19.23;51.02
62072;BME280;48031;48.542;13.232;2023-04-28T11:54:38;97140.22;;;19.10;51.57
62072;BME280;48031;48.542;13.232;2023-04-28T11:58:39;97138.28;;;19.11;51.76
62072;BME280;48031;48.542;13.232;2023-04-28T12:02:41;97140.66;;;19.04;51.98
62072;BME280;48031;48.542;13.232;2023-04-28T12:06:43;97144.13;;;18.96;51.94
62072;BME280;48031;48.542;13.232;2023-04-28T12:11:06;97147.56;;;19.46;51.34
62072;BME280;48031;48.542;13.232;2023-04-28T12:15:09;97145.28;;;18.59;53.35
62072;BME280;48031;48.542;13.232;2023-04-28T12:19:11;97143.03;;;18.47;52.57
62072;BME280;48031;48.542;13.232;2023-04-28T12:23:13;97137.03;;;18.45;53.25
62072;BME280;48031;48.542;13.232;2023-04-28T12:27:19;97143.00;;;18.75;53.06
62072;BME280;48031;48.542;13.232;2023-04-28T12:31:25;97150.84;;;18.67;52.92
62072;BME280;48031;48.542;13.232;2023-04-28T12:35:28;97139.59;;;18.55;53.41
62072;BME280;48031;48.542;13.232;2023-04-28T12:39:33;97120.47;;;18.37;53.89
62072;BME280;48031;48.542;13.232;2023-04-28T12:43:39;97090.16;;;18.28;54.19
62072;BME280;48031;48.542;13.232;2023-04-28T12:47:41;97091.84;;;18.02;54.79
62072;BME280;48031;48.542;13.232;2023-04-28T12:51:43;97110.06;;;18.61;53.47
62072;BME280;48031;48.542;13.232;2023-04-28T12:55:45;97107.78;;;18.63;53.69
62072;BME280;48031;48.542;13.232;2023-04-28T12:59:47;97105.81;;;18.41;54.10
62072;BME280;48031;48.542;13.232;2023-04-28T13:03:49;97091.81;;;18.65;53.73
62072;BME280;48031;48.542;13.232;2023-04-28T13:07:54;97108.22;;;18.56;53.66
62072;BME280;48031;48.542;13.232;2023-04-28T13:11:56;97102.06;;;18.73;53.34
62072;BME280;48031;48.542;13.232;2023-04-28T13:15:57;97109.69;;;18.76;52.93
62072;BME280;48031;48.542;13.232;2023-04-28T13:20:00;97113.06;;;18.95;53.23
62072;BME280;48031;48.542;13.232;2023-04-28T13:24:04;97109.19;;;18.74;53.46
62072;BME280;48031;48.542;13.232;2023-04-28T13:28:06;97094.25;;;18.66;53.48
62072;BME280;48031;48.542;13.232;2023-04-28T13:32:08;97087.25;;;18.60;54.15
62072;BME280;48031;48.542;13.232;2023-04-28T13:36:10;97079.41;;;18.54;54.63
62072;BME280;48031;48.542;13.232;2023-04-28T13:40:11;97075.38;;;18.74;54.37
62072;BME280;48031;48.542;13.232;2023-04-28T13:44:14;97078.88;;;18.65;54.68
62072;BME280;48031;48.542;13.232;2023-04-28T13:48:16;97078.44;;;18.94;53.53
62072;BME280;48031;48.542;13.232;2023-04-28T13:52:18;97064.59;;;19.08;53.65
62072;BME280;48031;48.542;13.232;2023-04-28T13:56:20;97064.44;;;18.82;54.07
62072;BME280;48031;48.542;13.232;2023-04-28T14:00:23;97062.91;;;18.54;54.57
62072;BME280;48031;48.542;13.232;2023-04-28T14:04:25;97071.53;;;18.39;55.04
62072;BME280;48031;48.542;13.232;2023-04-28T14:08:27;97062.09;;;18.53;54.63
62072;BME280;48031;48.542;13.232;2023-04-28T14:12:29;97063.13;;;18.57;54.07
62072;BME280;48031;48.542;13.232;2023-04-28T14:16:31;97077.38;;;18.46;54.71
62072;BME280;48031;48.542;13.232;2023-04-28T14:20:33;97074.56;;;18.37;55.03
62072;BME280;48031;48.542;13.232;2023-04-28T14:24:35;97084.03;;;17.81;55.75
62072;BME280;48031;48.542;13.232;2023-04-28T14:28:37;97077.22;;;17.65;57.48
62072;BME280;48031;48.542;13.232;2023-04-28T14:32:39;97066.34;;;17.74;57.19
62072;BME280;48031;48.542;13.232;2023-04-28T14:36:42;97060.88;;;18.59;55.22
62072;BME280;48031;48.542;13.232;2023-04-28T14:40:43;97056.38;;;18.63;55.08
62072;BME280;48031;48.542;13.232;2023-04-28T14:44:45;97047.28;;;18.41;56.06
62072;BME280;48031;48.542;13.232;2023-04-28T14:48:48;97032.69;;;18.54;56.24
62072;BME280;48031;48.542;13.232;2023-04-28T14:52:50;97030.09;;;18.35;56.56
62072;BME280;48031;48.542;13.232;2023-04-28T14:56:52;97029.78;;;18.37;56.68
62072;BME280;48031;48.542;13.232;2023-04-28T15:00:54;97026.78;;;18.60;55.85
62072;BME280;48031;48.542;13.232;2023-04-28T15:04:56;97022.94;;;18.48;56.55
62072;BME280;48031;48.542;13.232;2023-04-28T15:08:58;97027.38;;;18.57;55.92
62072;BME280;48031;48.542;13.232;2023-04-28T15:13:00;97021.16;;;18.65;55.76
62072;BME280;48031;48.542;13.232;2023-04-28T15:17:02;97016.50;;;18.52;56.30
62072;BME280;48031;48.542;13.232;2023-04-28T15:21:04;97015.94;;;18.42;57.04
62072;BME280;48031;48.542;13.232;2023-04-28T15:25:07;97018.13;;;18.53;56.68
62072;BME280;48031;48.542;13.232;2023-04-28T15:29:09;97003.72;;;18.70;56.47
62072;BME280;48031;48.542;13.232;2023-04-28T15:33:11;97006.63;;;18.51;57.02
62072;BME280;48031;48.542;13.232;2023-04-28T15:41:38;96987.03;;;18.22;57.81
62072;BME280;48031;48.542;13.232;2023-04-28T15:45:41;96980.50;;;18.18;57.72
62072;BME280;48031;48.542;13.232;2023-04-28T15:49:45;96987.88;;;18.31;57.11
62072;BME280;48031;48.542;13.232;2023-04-28T15:53:47;96983.47;;;18.44;56.61
62072;BME280;48031;48.542;13.232;2023-04-28T15:57:51;96995.84;;;17.97;57.68
62072;BME280;48031;48.542;13.232;2023-04-28T16:01:53;97001.31;;;18.33;57.04
62072;BME280;48031;48.542;13.232;2023-04-28T16:05:56;97006.47;;;18.34;56.92
62072;BME280;48031;48.542;13.232;2023-04-28T16:09:58;97007.84;;;18.45;56.68
62072;BME280;48031;48.542;13.232;2023-04-28T16:14:00;97010.38;;;18.33;56.93
62072;BME280;48031;48.542;13.232;2023-04-28T16:18:02;97005.78;;;18.51;56.01
62072;BME280;48031;48.542;13.232;2023-04-28T16:22:04;97012.44;;;18.50;56.59
62072;BME280;48031;48.542;13.232;2023-04-28T16:26:05;96982.69;;;18.52;56.79
62072;BME280;48031;48.542;13.232;2023-04-28T16:30:07;96983.81;;;18.51;56.83
62072;BME280;48031;48.542;13.232;2023-04-28T16:34:09;96952.97;;;18.32;57.24
62072;BME280;48031;48.542;13.232;2023-04-28T16:38:12;96951.09;;;18.18;57.86
62072;BME280;48031;48.542;13.232;2023-04-28T16:42:14;96945.69;;;18.27;57.52
62072;BME280;48031;48.542;13.232;2023-04-28T16:46:15;96944.22;;;18.07;58.15
62072;BME280;48031;48.542;13.232;2023-04-28T16:50:18;96940.59;;;17.98;58.36
62072;BME280;48031;48.542;13.232;2023-04-28T16:54:20;96932.06;;;18.00;58.54
62072;BME280;48031;48.542;13.232;2023-04-28T16:58:22;96933.88;;;18.26;57.33
62072;BME280;48031;48.542;13.232;2023-04-28T17:02:24;96945.41;;;18.37;57.86
62072;BME280;48031;48.542;13.232;2023-04-28T17:06:26;96955.84;;;18.26;57.69
62072;BME280;48031;48.542;13.232;2023-04-28T17:10:28;96956.88;;;18.17;57.87
62072;BME280;48031;48.542;13.232;2023-04-28T17:14:30;96960.09;;;18.10;58.44
62072;BME280;48031;48.542;13.232;2023-04-28T17:18:32;96957.91;;;17.99;58.25
62072;BME280;48031;48.542;13.232;2023-04-28T17:22:33;96962.19;;;17.91;59.01
62072;BME280;48031;48.542;13.232;2023-04-28T17:26:36;96971.69;;;17.71;59.29
62072;BME280;48031;48.542;13.232;2023-04-28T17:30:37;96967.97;;;17.90;58.44
62072;BME280;48031;48.542;13.232;2023-04-28T17:34:41;96962.59;;;17.84;58.94
62072;BME280;48031;48.542;13.232;2023-04-28T17:38:42;96953.56;;;17.84;58.98
62072;BME280;48031;48.542;13.232;2023-04-28T17:42:44;96941.75;;;17.83;59.01
62072;BME280;48031;48.542;13.232;2023-04-28T17:46:46;96941.03;;;17.28;60.42
62072;BME280;48031;48.542;13.232;2023-04-28T17:50:48;96948.56;;;17.86;58.58
62072;BME280;48031;48.542;13.232;2023-04-28T17:54:49;96937.47;;;17.91;58.68
62072;BME280;48031;48.542;13.232;2023-04-28T17:58:52;96951.31;;;17.86;58.46
62072;BME280;48031;48.542;13.232;2023-04-28T18:02:54;96953.38;;;17.67;59.35
62072;BME280;48031;48.542;13.232;2023-04-28T18:06:56;96944.84;;;17.68;59.37
62072;BME280;48031;48.542;13.232;2023-04-28T18:10:58;96952.94;;;17.87;58.81
62072;BME280;48031;48.542;13.232;2023-04-28T18:15:01;96963.31;;;17.90;58.85
62072;BME280;48031;48.542;13.232;2023-04-28T18:19:02;96965.22;;;17.90;58.90
62072;BME280;48031;48.542;13.232;2023-04-28T18:23:05;96958.13;;;17.89;59.62
62072;BME280;48031;48.542;13.232;2023-04-28T18:27:07;96956.28;;;17.84;59.07
62072;BME280;48031;48.542;13.232;2023-04-28T18:31:09;96957.81;;;17.90;58.55
62072;BME280;48031;48.542;13.232;2023-04-28T18:35:11;96956.28;;;17.98;58.61
62072;BME280;48031;48.542;13.232;2023-04-28T18:39:13;96955.19;;;17.85;59.10
62072;BME280;48031;48.542;13.232;2023-04-28T18:43:14;96954.78;;;17.78;59.39
62072;BME280;48031;48.542;13.232;2023-04-28T18:47:16;96955.97;;;17.99;58.26
62072;BME280;48031;48.542;13.232;2023-04-28T18:51:19;96963.94;;;17.87;58.79
62072;BME280;48031;48.542;13.232;2023-04-28T18:55:21;96955.41;;;17.89;59.46
62072;BME280;48031;48.542;13.232;2023-04-28T18:59:23;96938.81;;;17.80;59.34
62072;BME280;48031;48.542;13.232;2023-04-28T19:03:26;96950.34;;;17.68;60.02
62072;BME280;48031;48.542;13.232;2023-04-28T19:07:28;96950.25;;;17.96;58.61
62072;BME280;48031;48.542;13.232;2023-04-28T19:11:30;96957.16;;;17.71;60.06
62072;BME280;48031;48.542;13.232;2023-04-28T19:15:32;96982.03;;;17.88;59.41
62072;BME280;48031;48.542;13.232;2023-04-28T19:19:34;96976.56;;;17.47;60.71
62072;BME280;48031;48.542;13.232;2023-04-28T19:23:35;96974.63;;;17.89;59.87
62072;BME280;48031;48.542;13.232;2023-04-28T19:27:40;96983.53;;;17.94;60.11
62072;BME280;48031;48.542;13.232;2023-04-28T19:31:43;96973.47;;;17.90;59.92
62072;BME280;48031;48.542;13.232;2023-04-28T19:35:45;96955.47;;;17.83;59.96
62072;BME280;48031;48.542;13.232;2023-04-28T19:39:48;96976.25;;;18.12;60.03
62072;BME280;48031;48.542;13.232;2023-04-28T19:43:51;96998.44;;;17.66;61.05
62072;BME280;48031;48.542;13.232;2023-04-28T19:47:53;97004.34;;;18.09;60.14
62072;BME280;48031;48.542;13.232;2023-04-28T19:51:56;97018.66;;;18.19;59.19
62072;BME280;48031;48.542;13.232;2023-04-28T19:55:58;97013.09;;;18.11;59.48
62072;BME280;48031;48.542;13.232;2023-04-28T20:00:02;96998.50;;;18.24;60.28
62072;BME280;48031;48.542;13.232;2023-04-28T20:04:08;96990.59;;;17.73;62.05
62072;BME280;48031;48.542;13.232;2023-04-28T20:08:10;96991.00;;;17.39;64.61
62072;BME280;48031;48.542;13.232;2023-04-28T20:12:13;96998.34;;;17.71;63.14
62072;BME280;48031;48.542;13.232;2023-04-28T20:16:16;97012.28;;;17.61;63.33
62072;BME280;48031;48.542;13.232;2023-04-28T20:20:17;97019.78;;;17.69;63.39
62072;BME280;48031;48.542;13.232;2023-04-28T20:24:19;97011.84;;;17.54;64.52
62072;BME280;48031;48.542;13.232;2023-04-28T20:28:21;96965.19;;;17.54;64.66
62072;BME280;48031;48.542;13.232;2023-04-28T20:32:23;96954.94;;;17.95;62.97
62072;BME280;48031;48.542;13.232;2023-04-28T20:36:25;96994.44;;;17.85;63.42
62072;BME280;48031;48.542;13.232;2023-04-28T20:40:27;97015.19;;;17.51;64.70
62072;BME280;48031;48.542;13.232;2023-04-28T20:44:30;97004.44;;;17.27;66.12
62072;BME280;48031;48.542;13.232;2023-04-28T20:48:31;96984.09;;;17.55;64.74
62072;BME280;48031;48.542;13.232;2023-04-28T20:52:34;96966.91;;;17.77;64.12
62072;BME280;48031;48.542;13.232;2023-04-28T20:56:36;97015.59;;;17.30;65.81
62072;BME280;48031;48.542;13.232;2023-04-28T21:00:38;97011.38;;;17.65;64.39
62072;BME280;48031;48.542;13.232;2023-04-28T21:04:40;97017.84;;;17.83;63.42
62072;BME280;48031;48.542;13.232;2023-04-28T21:08:42;97024.94;;;17.84;63.79
62072;BME280;48031;48.542;13.232;2023-04-28T21:12:44;97012.66;;;17.81;63.79
62072;BME280;48031;48.542;13.232;2023-04-28T21:16:46;97024.88;;;18.11;62.74
62072;BME280;48031;48.542;13.232;2023-04-28T21:20:48;97034.31;;;17.83;63.60